Time;durP1;ratioP1;P1;durP2;ratioP2;P2;SDS_P1;SDS_P2;PMS_P1;PMS_P2;Temp;Humidity;BMP_temperature;BMP_pressure;BME280_temperature;BME280_humidity;BME280_pressure;Samples;Min_cycle;Max_cycle;Signal;HPM_P1;HPM_P2
2021/03/31 03:00:44;;;;;;;12.10;6.72;;;;;;;0.97;100.00;101766.88;1776205;77;21179;31
2021/03/31 03:03:13;;;;;;;11.33;7.03;;;;;;;1.00;100.00;101774.88;1714162;81;21219;-63
2021/03/31 03:05:44;;;;;;;12.63;7.37;;;;;;;1.02;100.00;101764.05;1711209;83;21204;-64
2021/03/31 03:08:12;;;;;;;12.25;7.08;;;;;;;1.04;100.00;101764.80;1712165;83;21097;-62
2021/03/31 03:10:40;;;;;;;11.60;7.50;;;;;;;1.07;100.00;101765.10;1673816;84;21503;-66
2021/03/31 03:13:10;;;;;;;8.80;6.10;;;;;;;1.08;100.00;101766.29;1740310;81;22495;-62
2021/03/31 03:15:40;;;;;;;11.50;6.83;;;;;;;1.10;100.00;101763.20;1725335;81;21063;-62
2021/03/31 03:18:09;;;;;;;11.18;6.70;;;;;;;1.11;100.00;101757.14;1725049;81;21362;-63
2021/03/31 03:20:38;;;;;;;10.82;6.00;;;;;;;1.12;100.00;101760.53;1743636;80;21049;-63
2021/03/31 03:23:06;;;;;;;10.38;6.12;;;;;;;1.15;100.00;101756.52;1745618;80;21545;-62
2021/03/31 03:25:35;;;;;;;12.20;7.05;;;;;;;1.17;100.00;101756.78;1724996;81;21160;-61
2021/03/31 03:28:05;;;;;;;12.25;6.85;;;;;;;1.18;100.00;101752.50;1741671;80;21132;-62
2021/03/31 03:30:34;;;;;;;11.05;6.62;;;;;;;1.18;100.00;101745.61;1701532;82;22303;-63
2021/03/31 03:33:04;;;;;;;10.13;6.33;;;;;;;1.16;100.00;101742.29;1686588;83;21225;-63
2021/03/31 03:35:32;;;;;;;11.70;8.18;;;;;;;1.16;100.00;101746.14;1660856;83;21257;-62
2021/03/31 03:38:01;;;;;;;12.37;7.12;;;;;;;1.16;100.00;101742.75;1742324;80;21215;-63
2021/03/31 03:40:30;;;;;;;11.08;7.00;;;;;;;1.14;100.00;101733.86;1740025;80;21164;-62
2021/03/31 03:42:59;;;;;;;10.55;7.03;;;;;;;1.14;100.00;101736.43;1743070;80;22240;-63
2021/03/31 03:45:28;;;;;;;11.08;6.72;;;;;;;1.12;100.00;101739.52;1747786;80;21009;-62
2021/03/31 03:47:58;;;;;;;13.05;6.95;;;;;;;1.11;100.00;101743.47;1711754;80;20966;-63
2021/03/31 03:50:26;;;;;;;10.53;7.05;;;;;;;1.10;100.00;101741.80;1721699;81;22335;-63
2021/03/31 03:52:55;;;;;;;10.50;7.20;;;;;;;1.08;100.00;101745.75;1744123;80;22384;-61
2021/03/31 03:55:25;;;;;;;10.65;6.67;;;;;;;1.04;100.00;101741.70;1741159;80;21187;-61
2021/03/31 03:57:53;;;;;;;11.28;6.75;;;;;;;1.04;100.00;101740.88;1743641;80;21006;-61
2021/03/31 04:00:24;;;;;;;10.82;7.08;;;;;;;1.01;100.00;101735.44;1741446;80;21203;-63
2021/03/31 04:02:54;;;;;;;12.43;8.03;;;;;;;1.02;100.00;101736.27;1745692;80;21219;-62
2021/03/31 04:05:23;;;;;;;10.85;7.12;;;;;;;1.03;100.00;101734.91;1748894;81;21134;-62
2021/03/31 04:07:53;;;;;;;11.25;7.37;;;;;;;1.04;100.00;101737.84;1745928;80;21206;-61
2021/03/31 04:10:25;;;;;;;11.50;7.90;;;;;;;1.09;100.00;101734.55;1748450;81;21250;-61
2021/03/31 04:12:55;;;;;;;12.53;7.42;;;;;;;1.15;100.00;101735.97;1744605;81;21566;-61
2021/03/31 04:15:23;;;;;;;12.43;7.95;;;;;;;1.20;100.00;101742.48;1719156;81;21191;-61
2021/03/31 04:17:52;;;;;;;12.25;7.75;;;;;;;1.23;100.00;101745.81;1752364;80;21148;-62
2021/03/31 04:20:24;;;;;;;12.15;7.92;;;;;;;1.25;100.00;101742.25;1752717;81;22245;-61
2021/03/31 04:22:53;;;;;;;13.43;7.67;;;;;;;1.24;100.00;101737.19;1750435;81;21624;-60
2021/03/31 04:25:24;;;;;;;11.18;7.40;;;;;;;1.24;100.00;101739.30;1748881;80;21170;-61
2021/03/31 04:30:34;;;;;;;;;;;;;;;1.25;100.00;101743.53;1736715;82;21499;-62
2021/03/31 04:33:04;;;;;;;14.50;8.73;;;;;;;1.28;100.00;101741.23;1736157;82;21202;-61
2021/03/31 04:35:32;;;;;;;14.03;7.80;;;;;;;1.28;100.00;101734.81;1732839;82;21046;-61
2021/03/31 04:38:14;;;;;;;14.20;7.55;;;;;;;1.29;100.00;101733.89;1732483;82;21172;-60
2021/03/31 04:40:58;;;;;;;14.20;8.23;;;;;;;1.30;100.00;101738.14;1735467;82;21070;-61
2021/03/31 04:43:29;;;;;;;15.63;8.18;;;;;;;1.31;100.00;101735.92;1734962;82;21211;-66
2021/03/31 04:45:59;;;;;;;10.88;7.47;;;;;;;1.32;100.00;101737.11;1735310;82;21413;-63
2021/03/31 04:48:28;;;;;;;13.25;8.25;;;;;;;1.36;100.00;101729.60;1732519;82;21160;-61
2021/03/31 04:50:57;;;;;;;15.98;8.80;;;;;;;1.39;100.00;101727.33;1735702;82;21681;-64
2021/03/31 04:53:26;;;;;;;15.18;8.53;;;;;;;1.43;100.00;101728.80;1730921;82;21027;-65
2021/03/31 04:55:54;;;;;;;14.20;9.13;;;;;;;1.50;100.00;101724.97;1730058;82;21878;-61
2021/03/31 04:58:23;;;;;;;18.62;10.95;;;;;;;1.61;100.00;101729.03;1733429;82;21223;-62
2021/03/31 05:00:51;;;;;;;16.67;8.73;;;;;;;1.76;100.00;101730.35;1697022;84;21304;-61
2021/03/31 05:03:20;;;;;;;15.55;9.08;;;;;;;1.94;100.00;101730.56;1670781;85;21222;-64
2021/03/31 05:05:49;;;;;;;16.55;9.65;;;;;;;2.10;100.00;101718.43;1677515;85;21229;-61
2021/03/31 05:08:19;;;;;;;13.30;8.73;;;;;;;2.21;100.00;101715.67;1672219;85;21230;-63
2021/03/31 05:10:47;;;;;;;16.50;10.30;;;;;;;2.28;100.00;101724.22;1736027;82;21263;-62
2021/03/31 05:13:16;;;;;;;15.45;9.63;;;;;;;2.38;100.00;101719.31;1694907;84;21581;-64
2021/03/31 05:15:46;;;;;;;14.75;9.33;;;;;;;2.52;100.00;101718.02;1677202;85;21254;-62
2021/03/31 05:18:15;;;;;;;16.00;9.13;;;;;;;2.79;100.00;101715.93;1672383;85;21573;-62
2021/03/31 05:20:44;;;;;;;15.95;9.40;;;;;;;3.10;100.00;101717.38;1676074;85;21136;-62
2021/03/31 05:23:12;;;;;;;13.58;9.13;;;;;;;3.51;100.00;101709.52;1679735;84;21321;-68
2021/03/31 05:25:41;;;;;;;18.05;9.93;;;;;;;3.92;100.00;101702.53;1679006;84;21256;-61
2021/03/31 05:28:10;;;;;;;16.02;10.40;;;;;;;4.22;100.00;101704.77;1677787;85;21194;-62
2021/03/31 05:30:39;;;;;;;16.50;9.58;;;;;;;4.48;100.00;101697.32;1677354;85;22327;-61
2021/03/31 05:33:08;;;;;;;16.42;8.98;;;;;;;4.66;100.00;101690.48;1675595;85;21226;-60
2021/03/31 05:35:38;;;;;;;15.03;9.70;;;;;;;4.75;100.00;101685.49;1676520;85;21120;-63
2021/03/31 05:38:07;;;;;;;14.47;9.85;;;;;;;4.67;100.00;101680.53;1674637;85;21690;-61
2021/03/31 05:40:36;;;;;;;16.52;10.93;;;;;;;4.53;100.00;101688.77;1677263;84;21193;-61
2021/03/31 05:43:06;;;;;;;14.63;8.73;;;;;;;4.40;100.00;101690.58;1675312;85;21181;-61
2021/03/31 05:45:36;;;;;;;16.62;9.68;;;;;;;4.36;100.00;101698.19;1675072;85;21152;-62
2021/03/31 05:48:07;;;;;;;14.43;9.53;;;;;;;4.40;100.00;101689.30;1676668;85;21441;-64
2021/03/31 05:50:35;;;;;;;17.15;10.35;;;;;;;4.43;100.00;101685.18;1673273;85;21271;-61
2021/03/31 05:53:05;;;;;;;16.40;10.20;;;;;;;4.45;100.00;101688.96;1676563;84;21153;-61
2021/03/31 05:55:34;;;;;;;14.60;9.60;;;;;;;4.49;100.00;101683.47;1686833;84;21245;-71
2021/03/31 05:58:03;;;;;;;17.85;10.40;;;;;;;4.55;100.00;101684.34;1674164;85;21308;-65
2021/03/31 06:00:33;;;;;;;13.08;9.00;;;;;;;4.67;100.00;101677.47;1666434;84;21220;-63
2021/03/31 06:03:03;;;;;;;15.88;9.75;;;;;;;4.78;100.00;101679.30;1666064;84;21274;-62
2021/03/31 06:05:34;;;;;;;17.05;10.20;;;;;;;4.88;100.00;101670.74;1664323;85;21654;-63
2021/03/31 06:08:05;;;;;;;15.05;8.85;;;;;;;5.08;100.00;101671.08;1667394;85;21580;-66
2021/03/31 06:10:34;;;;;;;13.50;8.85;;;;;;;5.24;100.00;101674.64;1667957;84;21220;-63
2021/03/31 06:13:05;;;;;;;16.20;9.28;;;;;;;5.34;100.00;101674.30;1607262;85;21221;-70
2021/03/31 06:15:42;;;;;;;12.50;9.28;;;;;;;5.53;100.00;101676.33;1668910;83;21255;-64
2021/03/31 06:18:14;;;;;;;15.13;9.70;;;;;;;5.67;100.00;101667.06;1669510;83;21232;-66
2021/03/31 06:20:54;;;;;;;15.70;9.63;;;;;;;5.72;100.00;101674.47;1672506;83;21640;-63
2021/03/31 06:26:34;;;;;;;16.20;10.45;;;;;;;5.69;100.00;101679.91;1669488;83;21283;-64
2021/03/31 06:29:09;;;;;;;13.68;8.88;;;;;;;5.89;100.00;101675.80;1670196;83;21539;-65
2021/03/31 06:31:44;;;;;;;12.10;8.05;;;;;;;6.29;100.00;101676.16;1681366;83;21256;-66
2021/03/31 06:34:21;;;;;;;13.03;8.18;;;;;;;6.69;100.00;101668.63;1692359;83;21706;-64
2021/03/31 06:36:58;;;;;;;12.63;8.37;;;;;;;7.06;100.00;101675.55;1691273;84;21678;-66
2021/03/31 06:39:32;;;;;;;11.57;7.70;;;;;;;7.67;100.00;101670.13;1685097;84;21413;-65
2021/03/31 06:47:32;;;;;;;10.37;7.00;;;;;;;9.91;100.00;101666.65;1791383;78;20987;-68
2021/03/31 06:50:00;;;;;;;11.35;8.18;;;;;;;10.25;100.00;101655.19;1793120;78;22330;-66
2021/03/31 06:52:29;;;;;;;9.73;7.37;;;;;;;10.53;100.00;101657.74;1799423;78;21077;-65
2021/03/31 06:55:03;;;;;;;14.70;8.13;;;;;;;10.73;100.00;101648.83;1800878;78;20994;-71
2021/03/31 06:57:35;;;;;;;10.67;7.50;;;;;;;10.89;100.00;101644.23;1798350;78;21081;-65
2021/03/31 07:00:13;;;;;;;13.13;8.07;;;;;;;11.17;100.00;101637.08;1803285;78;21050;-67
2021/03/31 07:02:45;;;;;;;11.43;7.77;;;;;;;11.32;100.00;101638.16;1798644;78;22131;-68
2021/03/31 07:05:13;;;;;;;9.98;7.78;;;;;;;11.37;100.00;101634.62;1806584;78;21655;-65
2021/03/31 07:07:42;;;;;;;11.37;8.07;;;;;;;11.39;100.00;101636.57;1799388;79;20990;-65
2021/03/31 07:10:16;;;;;;;10.47;7.13;;;;;;;11.52;100.00;101638.78;1741576;81;21005;-66
2021/03/31 07:12:49;;;;;;;9.67;7.50;;;;;;;11.61;100.00;101645.67;1744759;81;21038;-69
2021/03/31 07:15:21;;;;;;;9.10;6.93;;;;;;;11.57;100.00;101633.09;1736413;81;22098;-66
2021/03/31 07:17:54;;;;;;;11.73;7.80;;;;;;;11.63;100.00;101629.38;1757655;80;21030;-66
2021/03/31 07:20:23;;;;;;;12.00;8.20;;;;;;;11.73;100.00;101619.28;1741333;80;21062;-66
2021/03/31 07:22:53;;;;;;;13.63;9.30;;;;;;;11.82;100.00;101620.94;1755300;81;21873;-66
2021/03/31 07:28:03;;;;;;;13.47;10.30;;;;;;;12.00;98.60;101610.42;1812708;78;23995;-71
2021/03/31 07:30:33;;;;;;;13.20;9.70;;;;;;;11.96;98.92;101616.95;1790410;79;21223;-65
2021/03/31 07:33:24;;;;;;;14.65;9.80;;;;;;;12.09;99.26;101613.41;1783768;79;21359;-64
2021/03/31 07:35:53;;;;;;;11.23;7.67;;;;;;;12.24;92.80;101611.80;1804580;79;21018;-68
2021/03/31 07:38:23;;;;;;;12.70;9.67;;;;;;;12.38;89.74;101611.64;1789216;79;21048;-64
2021/03/31 07:40:52;;;;;;;11.17;8.50;;;;;;;12.50;90.62;101596.45;1790891;79;21769;-67
2021/03/31 07:43:34;;;;;;;9.73;7.45;;;;;;;12.83;89.78;101608.55;1798586;79;21020;-65
2021/03/31 07:46:08;;;;;;;;;;;;;;;13.03;76.56;101599.05;1796350;79;23476;-63
2021/03/31 07:48:37;;;;;;;11.77;8.47;;;;;;;12.91;73.48;101594.15;1789851;79;20151;-65
2021/03/31 07:51:26;;;;;;;425.18;328.75;;;;;;;12.77;72.44;101594.02;1731699;79;21037;-63
2021/03/31 07:53:59;;;;;;;536.43;365.17;;;;;;;12.69;73.91;101580.92;1752441;79;21692;-65
2021/03/31 07:56:35;;;;;;;125.50;88.90;;;;;;;12.76;74.54;101587.95;1730947;82;21195;-65
2021/03/31 07:59:07;;;;;;;127.30;96.47;;;;;;;12.84;76.72;101579.27;1727914;82;21434;-64
2021/03/31 08:01:52;;;;;;;22.03;19.73;;;;;;;13.07;73.57;101574.20;1717034;82;21066;-65
2021/03/31 08:04:22;;;;;;;20.13;18.13;;;;;;;13.25;72.51;101572.19;1724506;82;21193;-64
2021/03/31 08:06:55;;;;;;;18.48;15.40;;;;;;;13.49;69.01;101570.50;1729733;82;21023;-68
2021/03/31 08:09:28;;;;;;;18.02;16.17;;;;;;;13.60;69.09;101568.81;1725772;82;21057;-64
2021/03/31 08:12:01;;;;;;;14.73;11.47;;;;;;;14.07;65.74;101565.28;1730561;80;21779;-64
2021/03/31 08:14:35;;;;;;;16.23;11.27;;;;;;;14.31;59.00;101559.03;1726507;82;21261;-68
2021/03/31 08:17:11;;;;;;;18.90;15.10;;;;;;;14.33;57.59;101559.69;1750635;79;21277;-62
2021/03/31 08:19:43;;;;;;;29.27;24.63;;;;;;;14.32;54.49;101558.06;1722027;82;21241;-63
2021/03/31 08:22:34;;;;;;;38.43;28.00;;;;;;;14.27;55.57;101549.89;1726863;82;21593;-64
2021/03/31 08:25:20;;;;;;;16.00;9.93;;;;;;;14.48;55.68;101545.31;1734543;81;21789;-63
2021/03/31 08:28:07;;;;;;;12.27;8.40;;;;;;;15.01;52.63;101547.46;1823384;78;23339;-66
2021/03/31 08:30:37;;;;;;;21.93;14.57;;;;;;;14.95;52.96;101537.17;1782596;79;21033;-62
2021/03/31 08:33:07;;;;;;;17.80;11.27;;;;;;;15.11;54.00;101540.11;1789769;79;21036;-62
2021/03/31 08:35:47;;;;;;;12.10;8.43;;;;;;;15.59;52.26;101526.06;1664623;83;21573;-64
2021/03/31 08:38:18;;;;;;;13.23;9.17;;;;;;;15.92;47.94;101535.66;1669729;83;21033;-61
2021/03/31 08:40:48;;;;;;;11.90;7.72;;;;;;;15.83;46.92;101537.27;1669879;83;21045;-60
2021/03/31 08:43:19;;;;;;;12.53;7.87;;;;;;;15.77;47.00;101530.95;1667993;83;20974;-66
2021/03/31 08:45:53;;;;;;;12.73;8.43;;;;;;;15.87;47.07;101528.01;1671934;83;21206;-61
2021/03/31 08:48:40;;;;;;;11.37;7.70;;;;;;;15.89;46.86;101530.77;1669245;83;21084;-61
2021/03/31 08:51:12;;;;;;;22.53;10.60;;;;;;;15.71;45.86;101523.30;1667567;83;21010;-61
2021/03/31 08:53:39;;;;;;;;;;;;;;;15.50;46.57;101521.93;1670634;83;21235;-60
2021/03/31 08:56:17;;;;;;;10.60;7.20;;;;;;;15.58;45.85;101517.38;1666609;83;20514;-63
2021/03/31 08:58:53;;;;;;;7.63;6.00;;;;;;;15.80;45.12;101519.57;1668044;83;21205;-69
2021/03/31 09:01:30;;;;;;;10.20;7.47;;;;;;;15.86;44.02;101516.68;1668230;83;21244;-61
2021/03/31 09:04:22;;;;;;;17.00;12.80;;;;;;;15.79;44.27;101509.22;1668538;83;21160;-65
2021/03/31 09:06:54;;;;;;;8.50;6.77;;;;;;;15.83;43.53;101512.30;1669427;83;21176;-62
2021/03/31 09:09:25;;;;;;;12.67;7.03;;;;;;;15.88;43.49;101505.99;1670202;83;21227;-62
2021/03/31 09:12:02;;;;;;;11.27;6.07;;;;;;;16.16;43.31;101502.91;1665155;83;21211;-70
2021/03/31 09:14:30;;;;;;;8.47;5.93;;;;;;;16.42;43.12;101500.19;1667831;83;21255;-64
2021/03/31 09:17:02;;;;;;;8.77;6.73;;;;;;;16.70;41.09;101494.39;1671615;83;21198;-63
2021/03/31 09:19:36;;;;;;;9.83;6.83;;;;;;;16.80;41.69;101498.55;1667004;85;21176;-69
2021/03/31 09:22:11;;;;;;;8.90;6.37;;;;;;;16.85;41.26;101495.63;1669040;83;21277;-63
2021/03/31 09:24:44;;;;;;;7.20;5.60;;;;;;;16.91;39.95;101486.16;1667881;83;22155;-61
2021/03/31 09:27:18;;;;;;;7.78;5.25;;;;;;;17.01;40.18;101483.98;1669700;83;21176;-70
2021/03/31 09:29:47;;;;;;;6.93;5.27;;;;;;;16.94;39.81;101481.83;1665045;83;21239;-62
2021/03/31 09:32:25;;;;;;;9.90;5.80;;;;;;;16.82;38.91;101483.35;1666208;83;21180;-64
2021/03/31 09:34:50;;;;;;;8.23;5.83;;;;;;;17.01;39.19;101480.04;1656437;84;21140;-63
2021/03/31 09:37:21;;;;;;;9.13;5.87;;;;;;;17.09;38.56;101477.23;1653470;84;21522;-67
2021/03/31 09:39:58;;;;;;;8.07;5.60;;;;;;;16.94;38.83;101477.87;1662043;85;21041;-61
2021/03/31 09:42:33;;;;;;;10.00;5.53;;;;;;;16.86;38.71;101463.05;1666459;83;21211;-62
2021/03/31 09:45:04;;;;;;;8.70;5.93;;;;;;;16.69;39.14;101474.86;1659437;83;21695;-64
2021/03/31 09:47:34;;;;;;;12.63;7.95;;;;;;;16.77;38.82;101471.59;1666119;83;21227;-63
2021/03/31 09:50:05;;;;;;;13.07;8.10;;;;;;;16.85;39.32;101464.03;1667139;83;21498;-64
2021/03/31 09:52:33;;;;;;;8.15;5.62;;;;;;;17.02;39.15;101467.17;1639280;83;21165;-64
2021/03/31 09:55:04;;;;;;;9.83;5.57;;;;;;;16.96;38.79;101461.35;1670569;83;21033;-65
2021/03/31 09:57:32;;;;;;;7.47;5.70;;;;;;;16.66;38.83;101454.17;1657530;84;21126;-62
2021/03/31 10:00:07;;;;;;;7.23;5.70;;;;;;;16.52;39.20;101452.79;1667823;83;21161;-63
2021/03/31 10:02:42;;;;;;;8.30;5.83;;;;;;;16.55;39.02;101455.52;1661209;84;21682;-64
2021/03/31 10:05:19;;;;;;;7.50;5.27;;;;;;;16.41;39.32;101444.62;1658658;84;21557;-66
2021/03/31 10:08:07;;;;;;;9.17;6.17;;;;;;;16.30;39.29;101441.50;1661013;84;21244;-62
2021/03/31 10:10:50;;;;;;;7.83;4.90;;;;;;;16.24;39.75;101447.52;1657377;84;21172;-64
2021/03/31 10:13:21;;;;;;;8.23;5.50;;;;;;;16.12;39.30;101435.90;1657036;84;21888;-66
2021/03/31 10:16:00;;;;;;;7.85;6.17;;;;;;;15.96;39.76;101436.98;1666090;83;21030;-63
2021/03/31 10:18:32;;;;;;;8.97;5.97;;;;;;;15.92;39.68;101430.48;1667780;83;21271;-62
2021/03/31 10:21:03;;;;;;;9.00;6.97;;;;;;;15.76;40.04;101432.06;1668039;83;21025;-62
2021/03/31 10:23:34;;;;;;;9.33;6.55;;;;;;;15.64;40.53;101427.75;1659439;84;21866;-60
2021/03/31 10:26:31;;;;;;;7.33;5.20;;;;;;;15.57;40.58;101426.39;1664754;82;21197;-63
2021/03/31 10:29:06;;;;;;;7.70;5.53;;;;;;;15.62;40.88;101419.25;1658927;84;21225;-67
2021/03/31 10:31:39;;;;;;;8.23;5.50;;;;;;;16.02;40.60;101415.20;1660094;82;21203;-61
2021/03/31 10:34:10;;;;;;;9.00;5.30;;;;;;;16.35;40.04;101423.01;1665234;84;21058;-62
2021/03/31 10:51:17;;;;;;;6.90;4.70;;;;;;;16.48;38.52;101391.52;1711920;81;21130;-61
2021/03/31 10:53:46;;;;;;;7.10;4.10;;;;;;;16.59;38.57;101380.92;1714381;81;21198;-62
2021/03/31 10:56:14;;;;;;;6.53;4.03;;;;;;;16.89;37.60;101384.94;1718239;81;22130;-61
2021/03/31 10:58:43;;;;;;;5.40;4.10;;;;;;;16.98;36.83;101381.14;1720401;81;21569;-61
2021/03/31 11:01:12;;;;;;;8.07;3.73;;;;;;;16.92;36.98;101385.87;1695458;82;21191;-60
2021/03/31 11:03:54;;;;;;;8.00;5.37;;;;;;;16.98;36.59;101371.11;1635216;87;21164;-60
2021/03/31 11:06:24;;;;;;;6.30;4.00;;;;;;;17.06;36.75;101374.88;1656115;85;21096;-60
2021/03/31 11:08:52;;;;;;;9.70;4.33;;;;;;;17.00;36.72;101366.44;1653643;85;22258;-61
2021/03/31 11:11:21;;;;;;;6.57;4.27;;;;;;;16.85;36.72;101371.05;1657759;85;21226;-62
2021/03/31 11:13:49;;;;;;;7.27;4.20;;;;;;;16.76;37.45;101362.52;1656700;85;21188;-61
2021/03/31 11:16:17;;;;;;;6.57;4.70;;;;;;;16.99;37.17;101352.97;1656205;85;21159;-62
2021/03/31 11:19:07;;;;;;;6.47;4.17;;;;;;;17.19;36.31;101345.91;1657850;85;21186;-64
2021/03/31 11:27:16;;;;;;;7.17;3.83;;;;;;;16.89;34.66;101337.53;1632365;85;21098;-60
2021/03/31 11:29:49;;;;;;;5.83;3.75;;;;;;;16.98;34.34;101336.36;1639093;85;20934;-68
2021/03/31 11:32:17;;;;;;;6.58;4.65;;;;;;;16.93;34.06;101323.46;1636096;85;22545;-61
2021/03/31 11:34:46;;;;;;;18.63;13.60;;;;;;;16.77;34.54;101342.56;1639602;85;21218;-61
2021/03/31 11:37:16;;;;;;;6.80;4.63;;;;;;;16.77;34.95;101328.59;1636413;85;21046;-61
2021/03/31 11:39:45;;;;;;;8.27;4.23;;;;;;;16.96;35.26;101319.13;1635505;85;21168;-68
2021/03/31 11:42:13;;;;;;;18.53;12.30;;;;;;;17.15;34.43;101313.08;1637484;85;21670;-62
2021/03/31 11:44:42;;;;;;;8.27;5.30;;;;;;;17.31;34.85;101315.02;1631112;85;21607;-62
2021/03/31 11:47:10;;;;;;;5.23;3.57;;;;;;;17.48;34.09;101314.95;1636994;85;21443;-62
2021/03/31 11:49:39;;;;;;;5.83;3.70;;;;;;;17.30;33.97;101309.45;1635262;85;21226;-65
2021/03/31 11:52:08;;;;;;;7.73;4.07;;;;;;;17.11;33.96;101306.59;1638838;85;21225;-62
2021/03/31 11:54:36;;;;;;;7.10;3.87;;;;;;;16.97;34.98;101299.66;1634393;85;21092;-62
2021/03/31 11:57:06;;;;;;;6.37;4.07;;;;;;;16.99;34.93;101306.88;1636105;85;21539;-64
2021/03/31 11:59:34;;;;;;;6.80;3.63;;;;;;;16.77;35.52;101292.53;1632122;85;21394;-62
2021/03/31 12:02:03;;;;;;;7.70;4.53;;;;;;;16.75;36.34;101293.25;1641108;85;21185;-66
2021/03/31 12:04:33;;;;;;;7.80;3.92;;;;;;;16.87;36.19;101288.72;1631841;85;21653;-61
2021/03/31 12:07:04;;;;;;;6.73;4.40;;;;;;;16.83;35.77;101293.58;1637694;85;21176;-61
2021/03/31 12:09:32;;;;;;;6.23;4.10;;;;;;;16.73;36.05;101294.41;1633571;85;21231;-61
2021/03/31 12:12:02;;;;;;;11.87;4.00;;;;;;;16.55;36.24;101289.69;1636518;85;21738;-61
2021/03/31 12:14:30;;;;;;;5.37;3.57;;;;;;;16.34;36.61;101286.69;1638100;85;21243;-62
2021/03/31 12:17:02;;;;;;;6.60;3.70;;;;;;;16.15;36.78;101283.45;1629478;85;21236;-62
2021/03/31 12:19:31;;;;;;;10.27;4.60;;;;;;;15.97;37.53;101278.70;1632059;85;21167;-61
2021/03/31 12:22:00;;;;;;;8.07;4.33;;;;;;;16.01;38.35;101282.56;1633393;85;21244;-61
2021/03/31 12:24:31;;;;;;;7.60;4.57;;;;;;;16.25;37.71;101282.58;1624972;85;21038;-62
2021/03/31 12:27:04;;;;;;;9.10;4.77;;;;;;;16.34;37.43;101272.72;1621299;86;21239;-62
2021/03/31 12:29:31;;;;;;;7.73;6.03;;;;;;;16.40;37.37;101268.81;1626928;86;21196;-69
2021/03/31 12:31:59;;;;;;;5.63;4.37;;;;;;;16.41;37.63;101265.67;1625357;86;21689;-61
2021/03/31 12:34:29;;;;;;;6.60;4.93;;;;;;;16.47;37.24;101266.18;1626749;86;21248;-61
2021/03/31 12:36:57;;;;;;;5.67;4.47;;;;;;;16.49;36.89;101253.14;1629580;86;22245;-62
2021/03/31 12:39:26;;;;;;;361.40;270.57;;;;;;;16.50;36.87;101261.84;1632394;86;21141;-62
2021/03/31 12:41:54;;;;;;;318.07;285.90;;;;;;;16.45;37.22;101261.13;1627050;86;21154;-63
2021/03/31 12:44:22;;;;;;;18.33;16.27;;;;;;;16.58;37.18;101256.40;1624635;86;21801;-62
2021/03/31 12:46:51;;;;;;;6.83;4.53;;;;;;;16.70;36.78;101242.95;1629998;86;21683;-62
2021/03/31 12:49:21;;;;;;;5.67;3.47;;;;;;;16.73;36.59;101243.08;1625753;86;21582;-62
2021/03/31 12:51:59;;;;;;;9.37;5.10;;;;;;;16.59;36.85;101238.27;1624318;86;21256;-67
2021/03/31 12:54:27;;;;;;;8.35;4.62;;;;;;;16.38;37.02;101247.64;1597800;89;21574;-61
2021/03/31 12:56:53;;;;;;;9.57;6.47;;;;;;;16.15;37.59;101254.02;1623999;86;21172;-61
2021/03/31 12:59:22;;;;;;;7.60;4.60;;;;;;;16.00;37.91;101243.62;1634069;86;21635;-61
2021/03/31 13:01:52;;;;;;;11.47;7.20;;;;;;;15.96;37.75;101242.89;1626670;86;22592;-65
2021/03/31 13:04:22;;;;;;;8.00;5.90;;;;;;;15.87;37.84;101229.58;1633576;86;21548;-63
2021/03/31 13:06:52;;;;;;;6.33;4.33;;;;;;;15.78;37.75;101231.05;1639015;85;21185;-62
2021/03/31 13:09:23;;;;;;;7.12;4.30;;;;;;;15.70;37.92;101229.09;1631156;86;21197;-63
2021/03/31 13:11:54;;;;;;;10.68;6.67;;;;;;;15.72;38.25;101228.38;1625465;86;21165;-63
2021/03/31 13:17:02;;;;;;;60.30;54.80;;;;;;;15.76;38.36;101230.45;1635289;86;21025;-63
2021/03/31 13:22:24;;;;;;;119.00;108.17;;;;;;;15.84;38.12;101219.47;1621873;86;21755;-64
2021/03/31 13:32:47;;;;;;;7.40;4.77;;;;;;;16.24;36.90;101206.79;1618506;86;21213;-68
2021/03/31 13:35:33;;;;;;;67.07;60.20;;;;;;;16.17;36.27;101203.32;1590249;88;21570;-65
2021/03/31 13:38:12;;;;;;;124.80;113.60;;;;;;;15.99;36.83;101205.19;1635297;85;21237;-66
2021/03/31 13:40:35;;;;;;;14.63;13.23;;;;;;;15.98;36.81;101200.11;1636709;85;21228;-66
2021/03/31 13:43:03;;;;;;;20.73;18.80;;;;;;;15.96;36.98;101202.13;1615197;86;21543;-65
2021/03/31 13:45:33;;;;;;;6.80;5.13;;;;;;;15.94;36.73;101197.05;1588531;88;21306;-67
2021/03/31 13:48:17;;;;;;;17.93;16.23;;;;;;;15.89;36.34;101194.20;1616144;87;21712;-65
2021/03/31 13:50:46;;;;;;;226.53;208.67;;;;;;;15.79;36.63;101194.55;1611307;86;21270;-65
2021/03/31 13:53:20;;;;;;;39.85;36.70;;;;;;;15.73;36.55;101194.03;1635785;85;21391;-63
2021/03/31 13:55:51;;;;;;;21.40;19.03;;;;;;;15.65;36.26;101195.50;1638783;85;21174;-64
2021/03/31 13:58:19;;;;;;;66.70;60.37;;;;;;;15.54;36.68;101188.12;1589251;86;21239;-64
2021/03/31 14:00:48;;;;;;;39.50;36.03;;;;;;;15.48;36.92;101190.20;1592476;88;21696;-65
2021/03/31 14:03:19;;;;;;;15.40;13.60;;;;;;;15.41;37.16;101184.89;1645426;85;21265;-65
2021/03/31 14:05:49;;;;;;;9.27;7.13;;;;;;;15.36;37.46;101181.23;1618031;87;22639;-65
2021/03/31 14:08:18;;;;;;;13.80;12.23;;;;;;;15.32;37.46;101182.92;1587814;88;21253;-64
2021/03/31 14:10:50;;;;;;;6.87;4.80;;;;;;;15.31;37.56;101178.68;1618039;87;21266;-67
2021/03/31 14:13:22;;;;;;;416.80;297.50;;;;;;;15.25;37.32;101176.80;1618964;86;21521;-65
2021/03/31 14:15:55;;;;;;;347.07;284.13;;;;;;;15.18;37.72;101175.13;1641532;85;21003;-65
2021/03/31 14:18:23;;;;;;;56.93;50.70;;;;;;;15.14;37.55;101177.33;1621098;86;21398;-68
2021/03/31 14:20:52;;;;;;;21.93;19.90;;;;;;;15.08;37.75;101168.41;1643368;85;21172;-66
2021/03/31 14:23:20;;;;;;;6.83;5.00;;;;;;;15.00;37.77;101172.96;1639113;85;21174;-66
2021/03/31 14:25:48;;;;;;;17.00;15.33;;;;;;;14.86;37.58;101173.37;1636321;85;21188;-65
2021/03/31 14:28:18;;;;;;;238.57;195.70;;;;;;;14.70;38.30;101170.50;1630464;85;21202;-65
2021/03/31 14:30:48;;;;;;;11.18;6.83;;;;;;;14.64;38.25;101163.37;1638385;85;21223;-64
2021/03/31 14:33:18;;;;;;;65.77;59.53;;;;;;;14.55;38.20;101167.94;1634248;85;21093;-67
2021/03/31 14:35:49;;;;;;;83.95;75.90;;;;;;;14.44;38.34;101159.72;1636619;85;21678;-73
2021/03/31 14:38:18;;;;;;;19.43;17.60;;;;;;;14.34;38.80;101155.56;1635009;85;21109;-64
2021/03/31 14:40:49;;;;;;;13.25;8.78;;;;;;;14.31;38.92;101157.24;1634662;85;21234;-63
2021/03/31 14:43:17;;;;;;;11.90;8.27;;;;;;;14.28;38.54;101156.33;1636655;85;22413;-65
2021/03/31 14:45:48;;;;;;;21.35;13.25;;;;;;;14.24;38.62;101154.23;1632846;85;21101;-66
2021/03/31 14:48:16;;;;;;;13.23;9.47;;;;;;;14.14;38.80;101155.86;1632887;85;21243;-64
2021/03/31 14:50:45;;;;;;;11.17;8.00;;;;;;;14.03;39.30;101152.40;1632325;85;22072;-64
2021/03/31 14:56:44;;;;;;;10.27;6.60;;;;;;;13.81;39.28;101148.89;1628622;85;21771;-62
2021/03/31 15:01:36;;;;;;;12.67;6.93;;;;;;;13.57;39.42;101150.00;1629606;85;21050;-64
2021/03/31 15:04:05;;;;;;;14.00;9.57;;;;;;;13.46;39.13;101152.56;1635878;85;21245;-64
2021/03/31 15:06:34;;;;;;;15.43;9.00;;;;;;;13.36;39.34;101151.50;1632930;85;21571;-62
2021/03/31 15:09:03;;;;;;;255.63;227.97;;;;;;;13.29;39.21;101146.66;1630581;85;23586;-63
2021/03/31 15:11:31;;;;;;;73.47;67.10;;;;;;;13.21;39.59;101145.91;1623995;85;21507;-63
2021/03/31 15:14:00;;;;;;;43.67;40.20;;;;;;;13.13;39.77;101145.48;1626360;85;22159;-65
2021/03/31 15:16:30;;;;;;;18.50;10.90;;;;;;;13.07;39.74;101140.98;1619845;85;21566;-63
2021/03/31 15:19:00;;;;;;;20.13;18.07;;;;;;;13.01;39.99;101145.60;1625758;85;22391;-66
2021/03/31 15:21:47;;;;;;;29.47;19.50;;;;;;;12.86;40.12;101149.48;1624562;85;21907;-74
2021/03/31 15:24:10;;;;;;;21.20;14.53;;;;;;;12.86;40.12;101149.48;1618732;85;21950;-68
2021/03/31 15:26:39;;;;;;;29.20;20.43;;;;;;;12.75;40.05;101144.16;1618945;86;21895;-63
2021/03/31 15:29:09;;;;;;;13.90;9.17;;;;;;;12.65;40.27;101147.50;1634006;86;22376;-62